Terminal Aerodrome Forecast
Issued by NWS

Home | Current Version | Previous Version | Graphics & Text | Print | Product List | Glossary On
Versions: 1 2 3 4 5 6 7 8 9 10 11 12 13
000
FTUS43 KIWX 171700
TAFSBN
TAF
KSBN 171722Z 1718/1818 21013G20KT P6SM SCT100
     FM180000 24007KT P6SM BKN050
     FM180300 34005KT P6SM OVC050
      TEMPO 1804/1808 -SHRA
     FM180900 VRB04KT 5SM BR BKN030
     FM181300 31008KT P6SM BKN030=

USA.gov is the U.S. government's official web portal to all federal, state and local government web resources and services.